Time;durP1;ratioP1;P1;durP2;ratioP2;P2;SDS_P1;SDS_P2;PMS_P1;PMS_P2;Temp;Humidity;BMP_temperature;BMP_pressure;BME280_temperature;BME280_humidity;BME280_pressure;Samples;Min_cycle;Max_cycle;Signal;HPM_P1;HPM_P2
2023/09/18 00:00:27;;;;;;;29.73;21.48;;;;;;;;;;5086736;28;20501;-56
2023/09/18 00:02:53;;;;;;;30.42;21.35;;;;;;;;;;5085841;28;20059;-55
2023/09/18 00:05:20;;;;;;;37.40;22.95;;;;;;;;;;5085086;28;20518;-56
2023/09/18 00:07:46;;;;;;;25.67;20.63;;;;;;;;;;5085170;28;20056;-56
2023/09/18 00:10:13;;;;;;;27.42;20.45;;;;;;;;;;5086175;28;20044;-56
2023/09/18 00:12:40;;;;;;;36.75;22.10;;;;;;;;;;5084855;28;20668;-56
2023/09/18 00:15:08;;;;;;;26.42;20.00;;;;;;;;;;5086121;28;20142;-56
2023/09/18 00:17:35;;;;;;;26.23;21.17;;;;;;;;;;5086596;28;20056;-56
2023/09/18 00:20:06;;;;;;;30.80;22.75;;;;;;;;;;5086248;28;20122;-56
2023/09/18 00:22:33;;;;;;;27.13;21.05;;;;;;;;;;5086001;28;20140;-57
2023/09/18 00:25:02;;;;;;;26.73;21.13;;;;;;;;;;5086559;28;20434;-57
2023/09/18 00:27:28;;;;;;;33.58;21.08;;;;;;;;;;5085596;28;20088;-56
2023/09/18 00:29:55;;;;;;;30.48;21.23;;;;;;;;;;5085374;28;20172;-57
2023/09/18 00:32:21;;;;;;;28.30;20.83;;;;;;;;;;5084975;28;20059;-56
2023/09/18 00:34:48;;;;;;;27.35;20.27;;;;;;;;;;5086291;28;20053;-53
2023/09/18 00:37:16;;;;;;;28.95;21.33;;;;;;;;;;5085159;28;20049;-54
2023/09/18 00:39:44;;;;;;;26.75;20.77;;;;;;;;;;5086008;28;20100;-53
2023/09/18 00:42:13;;;;;;;26.40;20.20;;;;;;;;;;5085357;28;20052;-57
2023/09/18 00:44:41;;;;;;;27.45;20.42;;;;;;;;;;5085030;28;20048;-56
2023/09/18 00:47:08;;;;;;;27.58;21.20;;;;;;;;;;5086025;28;20606;-55
2023/09/18 00:49:35;;;;;;;32.33;20.67;;;;;;;;;;5086151;28;20161;-56
2023/09/18 00:52:03;;;;;;;26.95;21.10;;;;;;;;;;5085281;28;20052;-52
2023/09/18 00:54:29;;;;;;;30.70;22.58;;;;;;;;;;5082908;28;20450;-55
2023/09/18 00:56:56;;;;;;;26.27;20.27;;;;;;;;;;5085185;28;20450;-57
2023/09/18 00:59:23;;;;;;;31.20;22.10;;;;;;;;;;5085337;28;20056;-56
2023/09/18 01:01:50;;;;;;;27.77;21.65;;;;;;;;;;5085205;28;20056;-56
2023/09/18 01:04:17;;;;;;;29.13;20.95;;;;;;;;;;5083792;28;20056;-56
2023/09/18 01:06:43;;;;;;;27.95;21.30;;;;;;;;;;5084865;28;20063;-57
2023/09/18 01:09:12;;;;;;;27.98;21.52;;;;;;;;;;5083980;28;20057;-57
2023/09/18 01:11:39;;;;;;;30.92;21.30;;;;;;;;;;5084977;28;20106;-56
2023/09/18 01:14:35;;;;;;;27.95;21.08;;;;;;;;;;5084635;28;20458;-57
2023/09/18 01:17:05;;;;;;;25.77;21.50;;;;;;;;;;5080557;28;20080;-58
2023/09/18 01:19:37;;;;;;;25.65;20.55;;;;;;;;;;5085378;28;20087;-57
2023/09/18 01:22:08;;;;;;;30.48;21.52;;;;;;;;;;5085089;28;20427;-55
2023/09/18 01:24:35;;;;;;;30.77;20.70;;;;;;;;;;5084519;28;20098;-54
2023/09/18 01:27:04;;;;;;;26.40;21.05;;;;;;;;;;5084828;28;20056;-57
2023/09/18 01:29:31;;;;;;;30.75;22.20;;;;;;;;;;5084756;28;20053;-57
2023/09/18 01:31:58;;;;;;;27.48;20.85;;;;;;;;;;5085169;28;20058;-56
2023/09/18 01:34:41;;;;;;;28.88;22.10;;;;;;;;;;5084569;28;20060;-56
2023/09/18 01:37:09;;;;;;;34.47;22.38;;;;;;;;;;5084977;28;20083;-57
2023/09/18 01:39:35;;;;;;;31.35;22.02;;;;;;;;;;5084885;28;20525;-56
2023/09/18 01:42:04;;;;;;;26.52;22.13;;;;;;;;;;5084674;28;20080;-53
2023/09/18 01:44:31;;;;;;;28.23;20.30;;;;;;;;;;5085098;28;20102;-57
2023/09/18 01:46:58;;;;;;;32.00;21.77;;;;;;;;;;5084247;28;20056;-57
2023/09/18 01:49:28;;;;;;;31.55;22.48;;;;;;;;;;5084214;28;20052;-54
2023/09/18 01:51:55;;;;;;;27.63;20.65;;;;;;;;;;5064174;28;20677;-57
2023/09/18 01:54:22;;;;;;;27.00;20.05;;;;;;;;;;5078978;28;20056;-56
2023/09/18 01:56:48;;;;;;;30.52;20.08;;;;;;;;;;5084482;28;20133;-53
2023/09/18 01:59:14;;;;;;;24.83;20.70;;;;;;;;;;5082935;28;20060;-55
2023/09/18 02:01:41;;;;;;;30.40;21.75;;;;;;;;;;5084450;28;20055;-55
2023/09/18 02:04:08;;;;;;;21.10;18.77;;;;;;;;;;5084021;28;20075;-56
2023/09/18 02:06:55;;;;;;;26.55;19.20;;;;;;;;;;5084510;28;20163;-57
2023/09/18 02:09:22;;;;;;;23.02;19.35;;;;;;;;;;5083571;28;20060;-56
2023/09/18 02:11:48;;;;;;;25.55;18.38;;;;;;;;;;5084485;28;20396;-55
2023/09/18 02:14:15;;;;;;;32.42;20.48;;;;;;;;;;5083631;28;20576;-56
2023/09/18 02:16:43;;;;;;;27.63;19.73;;;;;;;;;;5083703;28;20045;-56
2023/09/18 02:19:10;;;;;;;29.52;20.83;;;;;;;;;;5084216;28;20060;-57
2023/09/18 02:21:37;;;;;;;24.85;20.52;;;;;;;;;;5083465;28;20103;-57
2023/09/18 02:24:04;;;;;;;23.30;18.30;;;;;;;;;;5083658;28;20118;-58
2023/09/18 02:26:30;;;;;;;26.73;20.42;;;;;;;;;;5084659;28;20471;-55
2023/09/18 02:28:58;;;;;;;28.95;20.10;;;;;;;;;;5083804;28;20102;-56
2023/09/18 02:31:25;;;;;;;24.30;19.23;;;;;;;;;;5083377;28;20052;-55
2023/09/18 02:33:51;;;;;;;26.90;19.48;;;;;;;;;;5083011;28;20516;-56
2023/09/18 02:36:17;;;;;;;23.92;18.98;;;;;;;;;;5083597;28;20057;-56
2023/09/18 02:38:44;;;;;;;26.63;21.17;;;;;;;;;;5083506;28;20049;-55
2023/09/18 02:41:10;;;;;;;26.20;21.90;;;;;;;;;;5083908;28;20049;-56
2023/09/18 02:43:37;;;;;;;28.83;20.42;;;;;;;;;;5082828;28;20080;-57
2023/09/18 02:46:05;;;;;;;24.30;20.67;;;;;;;;;;5083767;28;20064;-57
2023/09/18 02:48:32;;;;;;;29.73;20.63;;;;;;;;;;5062873;28;20507;-57
2023/09/18 02:50:59;;;;;;;25.08;21.17;;;;;;;;;;5062803;28;20049;-57
2023/09/18 02:53:29;;;;;;;27.40;20.60;;;;;;;;;;5062175;28;20560;-56
2023/09/18 02:55:56;;;;;;;26.85;20.77;;;;;;;;;;5063117;28;20310;-53
2023/09/18 02:58:25;;;;;;;28.55;20.02;;;;;;;;;;5063443;28;20048;-57
2023/09/18 03:00:55;;;;;;;31.73;21.63;;;;;;;;;;5062648;28;20052;-58
2023/09/18 03:03:21;;;;;;;23.85;18.45;;;;;;;;;;5062196;28;20049;-57
2023/09/18 03:05:48;;;;;;;29.92;21.33;;;;;;;;;;5062952;28;20515;-58
2023/09/18 03:08:14;;;;;;;27.05;21.52;;;;;;;;;;5063268;28;20557;-57
2023/09/18 03:10:42;;;;;;;32.85;21.30;;;;;;;;;;5063090;28;20103;-57
2023/09/18 03:13:09;;;;;;;30.90;22.58;;;;;;;;;;5062651;28;20057;-54
2023/09/18 03:15:36;;;;;;;32.55;21.58;;;;;;;;;;5062679;28;20063;-54
2023/09/18 03:18:04;;;;;;;32.80;22.17;;;;;;;;;;5063019;28;20056;-57
2023/09/18 03:20:31;;;;;;;28.95;20.63;;;;;;;;;;5063003;28;20084;-56
2023/09/18 03:22:58;;;;;;;31.80;20.05;;;;;;;;;;5062247;28;20048;-53
2023/09/18 03:25:25;;;;;;;32.45;21.75;;;;;;;;;;5062342;28;20819;-57
2023/09/18 03:27:53;;;;;;;32.88;22.35;;;;;;;;;;5062665;28;20460;-56
2023/09/18 03:30:20;;;;;;;29.60;21.73;;;;;;;;;;5062111;28;20553;-55
2023/09/18 03:32:48;;;;;;;30.80;23.15;;;;;;;;;;5061811;28;20522;-54
2023/09/18 03:35:18;;;;;;;31.85;21.98;;;;;;;;;;5062802;28;20053;-58
2023/09/18 03:37:45;;;;;;;27.65;21.85;;;;;;;;;;5062617;28;20103;-56
2023/09/18 03:40:11;;;;;;;29.73;23.08;;;;;;;;;;5062778;28;20057;-56
2023/09/18 03:42:38;;;;;;;32.67;22.70;;;;;;;;;;5062823;28;20057;-57
2023/09/18 03:45:08;;;;;;;33.22;22.88;;;;;;;;;;5063083;28;20068;-56
2023/09/18 03:47:35;;;;;;;35.60;23.55;;;;;;;;;;5062631;28;20130;-56
2023/09/18 03:50:03;;;;;;;32.90;23.42;;;;;;;;;;5062839;28;20080;-56
2023/09/18 03:52:29;;;;;;;32.65;22.33;;;;;;;;;;5062474;28;20476;-56
2023/09/18 03:54:56;;;;;;;37.78;24.33;;;;;;;;;;5062904;28;20056;-55
2023/09/18 03:57:22;;;;;;;33.60;23.35;;;;;;;;;;5062898;28;20554;-57
2023/09/18 03:59:49;;;;;;;34.03;23.42;;;;;;;;;;5060613;28;20053;-56
2023/09/18 04:02:15;;;;;;;29.98;23.10;;;;;;;;;;5061150;28;20511;-54
2023/09/18 04:04:42;;;;;;;39.25;23.60;;;;;;;;;;5059190;28;20142;-56
2023/09/18 04:07:08;;;;;;;33.58;23.13;;;;;;;;;;5065099;28;20549;-58
2023/09/18 04:09:35;;;;;;;34.50;21.55;;;;;;;;;;5062918;28;20306;-56
2023/09/18 04:12:02;;;;;;;31.33;21.98;;;;;;;;;;5062967;28;20064;-56
2023/09/18 04:14:29;;;;;;;37.08;21.77;;;;;;;;;;5061504;28;20512;-57
2023/09/18 04:16:55;;;;;;;35.22;20.25;;;;;;;;;;5061958;28;20968;-56
2023/09/18 04:19:22;;;;;;;32.47;20.80;;;;;;;;;;5062471;28;20053;-58
2023/09/18 04:21:48;;;;;;;27.73;18.30;;;;;;;;;;5061805;28;20064;-58
2023/09/18 04:24:15;;;;;;;29.08;18.90;;;;;;;;;;5062029;28;20150;-54
2023/09/18 04:26:41;;;;;;;26.70;18.40;;;;;;;;;;5062197;28;20060;-58
2023/09/18 04:29:08;;;;;;;30.50;18.60;;;;;;;;;;5061031;28;20045;-54
2023/09/18 04:31:35;;;;;;;29.75;18.42;;;;;;;;;;5063925;28;20593;-57
2023/09/18 04:34:02;;;;;;;24.08;17.98;;;;;;;;;;5065187;28;20064;-57
2023/09/18 04:36:29;;;;;;;24.70;17.05;;;;;;;;;;5065216;28;20380;-56
2023/09/18 04:38:56;;;;;;;26.60;18.20;;;;;;;;;;5054492;28;20053;-56
2023/09/18 04:41:22;;;;;;;28.35;17.27;;;;;;;;;;5065664;28;20519;-56
2023/09/18 04:43:49;;;;;;;28.70;18.55;;;;;;;;;;5064932;28;20629;-54
2023/09/18 04:46:15;;;;;;;25.90;18.15;;;;;;;;;;5065618;28;20048;-54
2023/09/18 04:48:42;;;;;;;24.55;17.88;;;;;;;;;;5063924;28;20041;-57
2023/09/18 04:51:08;;;;;;;27.30;18.92;;;;;;;;;;5064871;28;20103;-55
2023/09/18 04:53:35;;;;;;;29.25;19.25;;;;;;;;;;5064454;28;20060;-56
2023/09/18 04:56:03;;;;;;;28.63;18.65;;;;;;;;;;5064310;28;20060;-54
2023/09/18 04:58:32;;;;;;;30.20;17.38;;;;;;;;;;5065170;28;20507;-56
2023/09/18 05:00:59;;;;;;;26.02;17.30;;;;;;;;;;5062754;28;20084;-56
2023/09/18 05:03:26;;;;;;;29.92;17.23;;;;;;;;;;5063580;28;20447;-56
2023/09/18 05:05:53;;;;;;;34.28;19.50;;;;;;;;;;5062599;28;20064;-55
2023/09/18 05:08:20;;;;;;;41.00;18.75;;;;;;;;;;5070250;28;20495;-54
2023/09/18 05:10:47;;;;;;;25.90;16.38;;;;;;;;;;5076564;28;20495;-55
2023/09/18 05:13:14;;;;;;;23.83;17.25;;;;;;;;;;5063713;28;20084;-55
2023/09/18 05:15:40;;;;;;;30.08;18.38;;;;;;;;;;5065025;28;20072;-56
2023/09/18 05:18:07;;;;;;;33.30;18.83;;;;;;;;;;5065394;28;20085;-55
2023/09/18 05:20:34;;;;;;;28.42;17.35;;;;;;;;;;5063497;28;20057;-56
2023/09/18 05:23:04;;;;;;;30.88;17.42;;;;;;;;;;5064976;28;20523;-56
2023/09/18 05:25:32;;;;;;;27.83;17.05;;;;;;;;;;5063276;28;20454;-56
2023/09/18 05:27:59;;;;;;;25.67;16.17;;;;;;;;;;5055531;28;20473;-56
2023/09/18 05:30:34;;;;;;;25.92;16.80;;;;;;;;;;5064258;28;20045;-53
2023/09/18 05:33:04;;;;;;;25.08;16.85;;;;;;;;;;5064338;28;20057;-55
2023/09/18 05:35:32;;;;;;;26.85;15.65;;;;;;;;;;5064426;28;20534;-56
2023/09/18 05:37:59;;;;;;;23.88;14.77;;;;;;;;;;5063439;28;20053;-56
2023/09/18 05:40:29;;;;;;;22.20;14.35;;;;;;;;;;5064159;28;20049;-56
2023/09/18 05:42:56;;;;;;;21.40;13.50;;;;;;;;;;5064638;28;20055;-54
2023/09/18 05:45:22;;;;;;;21.20;13.15;;;;;;;;;;5064576;28;20053;-56
2023/09/18 05:47:49;;;;;;;22.42;12.27;;;;;;;;;;5063132;28;20138;-56
2023/09/18 05:50:16;;;;;;;20.83;12.73;;;;;;;;;;5062633;28;20061;-55
2023/09/18 05:52:43;;;;;;;18.58;11.95;;;;;;;;;;5064525;28;20055;-54
2023/09/18 05:55:10;;;;;;;20.27;12.70;;;;;;;;;;5063808;28;20561;-57
2023/09/18 05:57:37;;;;;;;20.50;12.68;;;;;;;;;;5064266;28;20049;-55
2023/09/18 06:00:05;;;;;;;18.48;12.98;;;;;;;;;;5063023;28;20056;-56
2023/09/18 06:02:32;;;;;;;23.10;12.20;;;;;;;;;;5061425;28;20519;-52
2023/09/18 06:05:02;;;;;;;20.33;11.93;;;;;;;;;;5063482;28;20063;-55
2023/09/18 06:07:29;;;;;;;19.50;11.55;;;;;;;;;;5064077;28;20057;-55
2023/09/18 06:09:57;;;;;;;16.08;11.63;;;;;;;;;;5062558;28;20056;-53
2023/09/18 06:12:24;;;;;;;18.55;13.00;;;;;;;;;;5063513;28;20053;-56
2023/09/18 06:14:51;;;;;;;15.23;10.43;;;;;;;;;;5063471;28;20136;-56
2023/09/18 06:17:18;;;;;;;19.40;12.40;;;;;;;;;;5063711;28;20053;-54
2023/09/18 06:19:48;;;;;;;18.75;12.98;;;;;;;;;;5063993;28;20080;-55
2023/09/18 06:22:14;;;;;;;18.08;13.43;;;;;;;;;;5063490;28;20494;-55
2023/09/18 06:24:41;;;;;;;20.70;13.27;;;;;;;;;;5062493;28;20459;-55
2023/09/18 06:27:07;;;;;;;24.15;14.15;;;;;;;;;;5063524;28;20215;-57
2023/09/18 06:29:34;;;;;;;20.55;12.82;;;;;;;;;;5064596;28;20052;-56
2023/09/18 06:32:01;;;;;;;23.10;14.40;;;;;;;;;;5064014;28;20479;-54
2023/09/18 06:34:28;;;;;;;21.33;12.20;;;;;;;;;;5062455;28;20057;-56
2023/09/18 06:36:54;;;;;;;19.73;11.95;;;;;;;;;;5062685;28;20564;-55
2023/09/18 06:39:23;;;;;;;22.17;13.15;;;;;;;;;;5063451;28;20053;-58
2023/09/18 06:41:50;;;;;;;19.85;13.02;;;;;;;;;;5063382;28;20076;-53
2023/09/18 06:44:17;;;;;;;19.83;11.70;;;;;;;;;;5062001;28;20515;-56
2023/09/18 06:46:43;;;;;;;18.58;10.80;;;;;;;;;;5063844;28;20064;-56
2023/09/18 06:49:10;;;;;;;17.52;10.95;;;;;;;;;;5063347;28;20049;-57
2023/09/18 06:51:36;;;;;;;15.88;10.05;;;;;;;;;;5062881;28;20056;-55
2023/09/18 06:54:09;;;;;;;15.32;10.30;;;;;;;;;;5060871;28;20119;-56
2023/09/18 06:56:35;;;;;;;19.13;10.73;;;;;;;;;;5063988;28;20118;-48
2023/09/18 06:59:02;;;;;;;14.15;10.23;;;;;;;;;;5063427;28;20053;-55
2023/09/18 07:01:31;;;;;;;18.17;9.70;;;;;;;;;;5058973;28;20600;-53
2023/09/18 07:03:59;;;;;;;14.07;9.50;;;;;;;;;;5061907;28;20064;-55
2023/09/18 07:06:26;;;;;;;15.90;9.88;;;;;;;;;;5063370;28;20056;-55
2023/09/18 07:08:54;;;;;;;14.60;10.30;;;;;;;;;;5062885;28;20049;-54
2023/09/18 07:11:22;;;;;;;15.95;10.32;;;;;;;;;;5060882;28;20053;-51
2023/09/18 07:13:51;;;;;;;20.40;10.35;;;;;;;;;;5058797;28;20075;-55
2023/09/18 07:16:18;;;;;;;21.88;10.32;;;;;;;;;;5060241;28;20549;-57
2023/09/18 07:18:44;;;;;;;14.10;10.15;;;;;;;;;;5057006;28;20517;-54
2023/09/18 07:21:10;;;;;;;19.05;10.63;;;;;;;;;;5063568;28;20045;-56
2023/09/18 07:23:37;;;;;;;16.73;10.38;;;;;;;;;;5060582;28;20057;-56
2023/09/18 07:26:03;;;;;;;20.67;12.80;;;;;;;;;;5063227;28;20057;-56
2023/09/18 07:28:31;;;;;;;15.85;11.27;;;;;;;;;;5063367;28;20495;-55
2023/09/18 07:31:05;;;;;;;16.58;11.23;;;;;;;;;;5058532;28;20431;-57
2023/09/18 07:33:32;;;;;;;20.38;11.77;;;;;;;;;;5060173;28;20523;-55
2023/09/18 07:35:59;;;;;;;30.25;12.95;;;;;;;;;;5060607;28;20438;-54
2023/09/18 07:38:25;;;;;;;24.05;11.38;;;;;;;;;;5080043;28;21030;-58
2023/09/18 07:40:52;;;;;;;24.75;11.93;;;;;;;;;;5061840;28;20080;-56
2023/09/18 07:43:18;;;;;;;16.45;12.23;;;;;;;;;;5062919;28;20056;-56
2023/09/18 07:45:44;;;;;;;16.92;11.50;;;;;;;;;;5062901;28;20572;-56
2023/09/18 07:48:11;;;;;;;18.45;12.57;;;;;;;;;;5060292;28;20499;-56
2023/09/18 07:50:37;;;;;;;19.38;11.27;;;;;;;;;;5053905;28;20143;-56
2023/09/18 07:53:04;;;;;;;18.27;11.70;;;;;;;;;;5063115;28;20587;-58
2023/09/18 07:55:31;;;;;;;16.42;10.43;;;;;;;;;;5058075;28;20088;-55
2023/09/18 07:57:59;;;;;;;16.88;11.73;;;;;;;;;;5062227;28;20057;-56
2023/09/18 08:00:26;;;;;;;17.55;10.80;;;;;;;;;;5061523;28;20053;-53
2023/09/18 08:02:58;;;;;;;21.33;11.68;;;;;;;;;;5059826;28;20154;-56
2023/09/18 08:05:28;;;;;;;19.83;11.50;;;;;;;;;;5060549;28;20059;-58
2023/09/18 08:07:56;;;;;;;18.25;11.52;;;;;;;;;;5064194;28;20148;-51
2023/09/18 08:10:23;;;;;;;14.38;9.88;;;;;;;;;;5065413;28;20056;-56
2023/09/18 08:12:51;;;;;;;23.10;11.55;;;;;;;;;;5064259;28;20057;-56
2023/09/18 08:15:21;;;;;;;15.40;10.05;;;;;;;;;;5045281;28;20587;-56
2023/09/18 08:17:49;;;;;;;14.18;9.35;;;;;;;;;;5045015;28;20053;-54
2023/09/18 08:20:16;;;;;;;11.35;8.98;;;;;;;;;;5044936;28;20579;-55
2023/09/18 08:22:44;;;;;;;19.85;8.80;;;;;;;;;;5045872;28;20437;-54
2023/09/18 08:25:10;;;;;;;22.55;9.02;;;;;;;;;;5054464;28;20509;-57
2023/09/18 08:27:41;;;;;;;21.50;8.45;;;;;;;;;;5073842;28;20053;-54
2023/09/18 08:30:10;;;;;;;13.32;7.35;;;;;;;;;;5065483;28;20422;-52
2023/09/18 08:32:37;;;;;;;11.10;7.97;;;;;;;;;;5065761;28;20103;-55
2023/09/18 08:35:04;;;;;;;10.85;7.38;;;;;;;;;;5064657;28;20099;-57
2023/09/18 08:37:31;;;;;;;8.23;6.32;;;;;;;;;;5064137;28;20056;-56
2023/09/18 08:40:00;;;;;;;14.05;7.05;;;;;;;;;;5062438;28;20053;-55
2023/09/18 08:42:29;;;;;;;7.82;7.03;;;;;;;;;;5065288;28;21017;-57
2023/09/18 08:44:58;;;;;;;8.65;6.43;;;;;;;;;;5065743;28;20466;-53
2023/09/18 08:47:24;;;;;;;8.15;6.93;;;;;;;;;;5063483;28;20048;-54
2023/09/18 08:49:52;;;;;;;10.35;6.53;;;;;;;;;;5063871;28;20512;-56
2023/09/18 08:52:19;;;;;;;8.95;6.50;;;;;;;;;;5065245;28;20059;-55
2023/09/18 08:54:45;;;;;;;8.18;6.32;;;;;;;;;;5065311;28;20049;-57
2023/09/18 08:57:12;;;;;;;7.20;6.15;;;;;;;;;;5064317;28;20049;-56
2023/09/18 08:59:39;;;;;;;9.48;6.35;;;;;;;;;;5063382;28;20049;-55
2023/09/18 09:02:06;;;;;;;6.78;5.88;;;;;;;;;;5064890;28;20049;-49
2023/09/18 09:04:32;;;;;;;10.25;6.00;;;;;;;;;;5065539;28;20061;-57
2023/09/18 09:06:59;;;;;;;9.52;6.45;;;;;;;;;;5064319;28;20446;-56
2023/09/18 09:09:29;;;;;;;7.35;5.53;;;;;;;;;;5063060;28;20053;-56
2023/09/18 09:11:56;;;;;;;9.85;5.68;;;;;;;;;;5064988;28;20485;-54
2023/09/18 09:14:27;;;;;;;8.20;6.32;;;;;;;;;;5065332;28;20095;-56
2023/09/18 09:16:55;;;;;;;6.90;5.80;;;;;;;;;;5063594;28;20057;-56
2023/09/18 09:19:29;;;;;;;11.05;5.72;;;;;;;;;;5061979;28;20118;-53
2023/09/18 09:21:57;;;;;;;7.38;5.28;;;;;;;;;;5064865;28;20140;-53
2023/09/18 09:24:37;;;;;;;5.40;4.90;;;;;;;;;;5064872;28;20135;-57
2023/09/18 09:27:04;;;;;;;7.03;5.40;;;;;;;;;;5065072;28;20056;-55
2023/09/18 09:29:31;;;;;;;5.78;4.82;;;;;;;;;;5064588;28;20056;-57
2023/09/18 09:32:14;;;;;;;5.30;4.50;;;;;;;;;;5065180;28;20496;-57
2023/09/18 09:34:41;;;;;;;4.93;4.40;;;;;;;;;;5061322;28;20049;-56
2023/09/18 09:37:07;;;;;;;7.63;5.85;;;;;;;;;;5061858;28;20061;-57
2023/09/18 09:39:34;;;;;;;8.82;4.28;;;;;;;;;;5062984;28;20503;-57
2023/09/18 09:42:03;;;;;;;5.18;4.68;;;;;;;;;;5064856;28;20045;-56
2023/09/18 09:44:33;;;;;;;5.10;4.60;;;;;;;;;;5064484;28;20060;-57
2023/09/18 09:46:59;;;;;;;12.68;4.70;;;;;;;;;;5064028;28;20115;-57
2023/09/18 09:49:33;;;;;;;5.60;5.00;;;;;;;;;;5064437;28;20071;-57
2023/09/18 09:51:59;;;;;;;9.00;5.10;;;;;;;;;;5064843;28;20055;-57
2023/09/18 09:54:36;;;;;;;6.93;5.10;;;;;;;;;;5064366;28;20153;-57
2023/09/18 09:57:04;;;;;;;6.57;5.07;;;;;;;;;;5064828;28;20110;-57
2023/09/18 09:59:34;;;;;;;7.40;5.32;;;;;;;;;;5064844;28;20737;-56
2023/09/18 10:02:02;;;;;;;10.27;7.05;;;;;;;;;;5064003;28;20561;-57
2023/09/18 10:04:31;;;;;;;7.20;6.13;;;;;;;;;;5064065;28;20056;-57
2023/09/18 10:07:08;;;;;;;9.25;7.05;;;;;;;;;;5064053;28;20060;-56
2023/09/18 10:09:35;;;;;;;8.20;7.50;;;;;;;;;;5064720;28;20093;-56
2023/09/18 10:12:04;;;;;;;8.05;7.35;;;;;;;;;;5064531;28;20067;-57
2023/09/18 10:14:32;;;;;;;11.20;7.65;;;;;;;;;;5064953;28;20142;-57
2023/09/18 10:17:19;;;;;;;8.70;7.30;;;;;;;;;;5063742;28;20092;-57
2023/09/18 10:19:46;;;;;;;17.45;7.82;;;;;;;;;;5064041;28;20115;-54
2023/09/18 10:22:28;;;;;;;9.43;7.15;;;;;;;;;;5064127;28;20482;-57
2023/09/18 10:24:56;;;;;;;9.25;7.50;;;;;;;;;;5060620;28;20061;-57
2023/09/18 10:27:26;;;;;;;10.80;7.95;;;;;;;;;;5067187;28;20606;-56
2023/09/18 10:29:54;;;;;;;10.88;7.05;;;;;;;;;;5061407;28;20542;-56
2023/09/18 10:32:21;;;;;;;9.07;7.75;;;;;;;;;;5075651;28;20492;-58
2023/09/18 10:34:48;;;;;;;8.45;7.13;;;;;;;;;;5062582;28;20054;-57
2023/09/18 10:37:15;;;;;;;9.15;6.55;;;;;;;;;;5061815;28;20130;-56
2023/09/18 10:39:43;;;;;;;6.68;5.95;;;;;;;;;;5046679;28;20081;-56
2023/09/18 10:42:12;;;;;;;8.48;7.15;;;;;;;;;;5061624;28;20049;-57
2023/09/18 10:44:39;;;;;;;7.35;6.57;;;;;;;;;;5061825;28;20064;-56
2023/09/18 10:47:07;;;;;;;9.80;6.60;;;;;;;;;;5064969;28;20053;-56
2023/09/18 10:49:35;;;;;;;8.57;7.78;;;;;;;;;;5043872;28;20539;-57
2023/09/18 10:52:03;;;;;;;7.93;7.32;;;;;;;;;;5047880;28;21878;-56
2023/09/18 10:54:31;;;;;;;8.35;6.97;;;;;;;;;;5062028;28;20134;-57
2023/09/18 10:56:57;;;;;;;6.72;6.13;;;;;;;;;;5062894;28;20080;-56
2023/09/18 10:59:24;;;;;;;5.78;5.28;;;;;;;;;;5059501;28;20057;-55
2023/09/18 11:01:50;;;;;;;6.53;5.93;;;;;;;;;;5054352;28;20049;-57
2023/09/18 11:04:20;;;;;;;7.78;6.10;;;;;;;;;;5062593;28;20084;-57
2023/09/18 11:06:53;;;;;;;6.60;6.00;;;;;;;;;;5055592;28;20496;-56
2023/09/18 11:09:20;;;;;;;7.30;5.88;;;;;;;;;;5054556;28;20042;-54
2023/09/18 11:11:55;;;;;;;6.80;5.55;;;;;;;;;;5059242;28;20052;-54
2023/09/18 11:14:21;;;;;;;5.73;5.20;;;;;;;;;;5050680;28;20530;-56
2023/09/18 11:16:49;;;;;;;6.53;5.05;;;;;;;;;;5060637;28;20136;-56
2023/09/18 11:19:17;;;;;;;6.18;5.45;;;;;;;;;;5057071;28;20181;-57
2023/09/18 11:21:45;;;;;;;6.57;5.45;;;;;;;;;;5042953;28;20054;-57
2023/09/18 11:24:17;;;;;;;7.18;5.47;;;;;;;;;;5044821;28;20060;-57
2023/09/18 11:26:45;;;;;;;8.07;5.63;;;;;;;;;;5047876;28;20057;-55
2023/09/18 11:29:13;;;;;;;6.13;4.55;;;;;;;;;;5048243;28;20563;-57
2023/09/18 11:31:47;;;;;;;6.10;4.88;;;;;;;;;;5060117;28;20048;-56
2023/09/18 11:34:15;;;;;;;6.93;4.90;;;;;;;;;;5051926;28;20060;-56
2023/09/18 11:36:42;;;;;;;6.07;4.43;;;;;;;;;;5058688;28;20057;-57
2023/09/18 11:39:11;;;;;;;6.25;4.60;;;;;;;;;;5060444;28;20172;-57
2023/09/18 11:41:38;;;;;;;8.80;4.35;;;;;;;;;;5062487;28;20072;-56
2023/09/18 11:44:13;;;;;;;10.60;4.82;;;;;;;;;;5074169;28;20057;-55
2023/09/18 11:46:40;;;;;;;6.55;4.57;;;;;;;;;;5064811;28;20144;-56
2023/09/18 11:49:07;;;;;;;7.20;4.05;;;;;;;;;;5056499;28;20045;-56
2023/09/18 11:51:34;;;;;;;7.95;3.80;;;;;;;;;;5065158;28;20053;-56
2023/09/18 11:54:03;;;;;;;7.78;4.05;;;;;;;;;;5065854;28;20071;-56
2023/09/18 11:56:30;;;;;;;5.55;3.88;;;;;;;;;;5062993;28;20136;-55
2023/09/18 11:58:56;;;;;;;9.90;4.10;;;;;;;;;;5064506;28;20107;-54
2023/09/18 12:01:23;;;;;;;6.10;4.40;;;;;;;;;;5065037;28;20053;-54
2023/09/18 12:04:09;;;;;;;6.47;4.60;;;;;;;;;;5061896;28;20053;-56
2023/09/18 12:06:36;;;;;;;7.43;5.53;;;;;;;;;;5063309;28;20645;-56
2023/09/18 12:09:05;;;;;;;7.78;5.50;;;;;;;;;;5070306;28;20071;-55
2023/09/18 12:11:34;;;;;;;7.45;6.70;;;;;;;;;;5069381;28;20049;-57
2023/09/18 12:14:05;;;;;;;8.45;6.32;;;;;;;;;;5065127;28;20084;-54
2023/09/18 12:16:38;;;;;;;9.57;6.30;;;;;;;;;;5066044;28;20049;-57
2023/09/18 12:19:06;;;;;;;10.25;5.95;;;;;;;;;;5063747;28;20144;-55
2023/09/18 12:21:40;;;;;;;7.00;5.72;;;;;;;;;;5065837;28;20323;-57
2023/09/18 12:24:06;;;;;;;7.53;6.05;;;;;;;;;;5063104;28;20143;-54
2023/09/18 12:26:33;;;;;;;5.35;4.85;;;;;;;;;;5065337;28;20052;-56
2023/09/18 12:29:00;;;;;;;10.63;5.72;;;;;;;;;;5064567;28;20148;-59
2023/09/18 12:31:26;;;;;;;5.90;4.15;;;;;;;;;;5064507;28;20140;-55
2023/09/18 12:33:53;;;;;;;7.78;4.15;;;;;;;;;;5064114;28;20049;-58
2023/09/18 12:36:20;;;;;;;5.82;4.07;;;;;;;;;;5062254;28;20057;-55
2023/09/18 12:38:56;;;;;;;8.00;4.13;;;;;;;;;;5055145;28;20582;-38
2023/09/18 12:41:26;;;;;;;5.78;3.55;;;;;;;;;;5066930;28;20228;-60
2023/09/18 12:43:58;;;;;;;6.43;4.18;;;;;;;;;;5064742;28;20092;-58
2023/09/18 12:46:24;;;;;;;8.25;3.50;;;;;;;;;;5064246;28;20096;-57
2023/09/18 12:48:51;;;;;;;3.85;2.95;;;;;;;;;;5064513;28;20049;-58
2023/09/18 12:51:22;;;;;;;9.15;3.10;;;;;;;;;;5060179;28;20053;-56
2023/09/18 12:53:58;;;;;;;5.03;3.53;;;;;;;;;;5064616;28;20053;-57
2023/09/18 12:56:25;;;;;;;5.25;3.63;;;;;;;;;;5067019;28;20576;-58
2023/09/18 12:58:51;;;;;;;3.58;3.28;;;;;;;;;;5070272;28;20140;-59
2023/09/18 13:01:38;;;;;;;6.63;3.60;;;;;;;;;;5061800;28;20064;-56
2023/09/18 13:04:05;;;;;;;6.47;4.00;;;;;;;;;;5065114;28;20060;-58
2023/09/18 13:06:32;;;;;;;8.23;3.83;;;;;;;;;;5063959;28;20048;-57
2023/09/18 13:09:19;;;;;;;5.38;3.88;;;;;;;;;;5064480;28;20137;-55
2023/09/18 13:11:56;;;;;;;5.90;3.75;;;;;;;;;;5063104;28;20059;-57
2023/09/18 13:14:23;;;;;;;6.15;4.18;;;;;;;;;;5062902;28;20065;-57
2023/09/18 13:16:49;;;;;;;6.22;3.72;;;;;;;;;;5056150;28;20068;-57
2023/09/18 13:19:17;;;;;;;4.32;3.85;;;;;;;;;;5063754;28;20553;-58
2023/09/18 13:21:50;;;;;;;5.43;3.88;;;;;;;;;;5063925;28;20060;-57
2023/09/18 13:24:29;;;;;;;5.25;3.70;;;;;;;;;;5062196;28;20436;-57
2023/09/18 13:26:56;;;;;;;4.30;3.90;;;;;;;;;;5064042;28;20100;-57
2023/09/18 13:29:23;;;;;;;5.40;3.88;;;;;;;;;;5064067;28;20507;-58
2023/09/18 13:31:51;;;;;;;8.35;3.80;;;;;;;;;;5063963;28;20542;-57
2023/09/18 13:34:21;;;;;;;4.93;3.60;;;;;;;;;;5063619;28;20527;-57
2023/09/18 13:36:47;;;;;;;7.90;3.38;;;;;;;;;;5059526;28;20053;-57
2023/09/18 13:39:16;;;;;;;6.32;3.30;;;;;;;;;;5062328;28;20196;-57
2023/09/18 13:41:43;;;;;;;4.57;3.28;;;;;;;;;;5065724;28;20586;-57
2023/09/18 13:44:10;;;;;;;8.52;3.53;;;;;;;;;;5062472;28;20143;-57
2023/09/18 13:46:37;;;;;;;4.63;3.42;;;;;;;;;;5065160;28;20126;-57
2023/09/18 13:49:04;;;;;;;3.88;3.08;;;;;;;;;;5070359;28;20517;-58
2023/09/18 13:51:32;;;;;;;8.50;3.67;;;;;;;;;;5064336;28;20056;-58
2023/09/18 13:53:58;;;;;;;5.72;2.95;;;;;;;;;;5061686;28;20053;-57
2023/09/18 13:56:27;;;;;;;6.63;3.08;;;;;;;;;;5062625;28;20483;-58
2023/09/18 13:58:55;;;;;;;3.95;2.90;;;;;;;;;;5059625;28;20408;-40
2023/09/18 14:01:22;;;;;;;6.45;2.88;;;;;;;;;;5062149;28;20065;-55
2023/09/18 14:03:50;;;;;;;4.20;2.47;;;;;;;;;;5060685;28;20045;-56
2023/09/18 14:06:17;;;;;;;5.18;2.80;;;;;;;;;;5063193;28;20590;-56
2023/09/18 14:08:43;;;;;;;7.15;2.47;;;;;;;;;;5061512;28;20073;-55
2023/09/18 14:11:10;;;;;;;4.43;2.65;;;;;;;;;;5063860;28;20049;-56
2023/09/18 14:13:41;;;;;;;5.93;2.45;;;;;;;;;;5063634;28;20056;-57
2023/09/18 14:16:07;;;;;;;4.03;2.20;;;;;;;;;;5060362;28;20148;-55
2023/09/18 14:18:36;;;;;;;6.93;2.30;;;;;;;;;;5063734;28;20049;-57
2023/09/18 14:21:02;;;;;;;3.20;1.70;;;;;;;;;;5061213;28;20104;-55
2023/09/18 14:23:30;;;;;;;3.30;1.80;;;;;;;;;;5063462;28;20056;-58
2023/09/18 14:25:57;;;;;;;2.78;2.17;;;;;;;;;;5061617;28;20059;-57
2023/09/18 14:28:23;;;;;;;3.78;1.80;;;;;;;;;;5063214;28;20063;-57
2023/09/18 14:30:50;;;;;;;5.30;2.00;;;;;;;;;;5060602;28;20056;-39
2023/09/18 14:33:16;;;;;;;4.90;2.40;;;;;;;;;;5061951;28;20064;-47